Time;durP1;ratioP1;P1;durP2;ratioP2;P2;SDS_P1;SDS_P2;PMS_P1;PMS_P2;Temp;Humidity;BMP_temperature;BMP_pressure;BME280_temperature;BME280_humidity;BME280_pressure;Samples;Min_cycle;Max_cycle;Signal;HPM_P1;HPM_P2
2021/11/10 00:00:48;;;;;;;15.68;8.18;;;2.40;99.90;;;;;;5055255;28;20032;-79
2021/11/10 00:03:14;;;;;;;12.00;7.47;;;2.40;99.90;;;;;;5073846;28;20039;-77
2021/11/10 00:05:40;;;;;;;13.18;7.18;;;2.50;99.90;;;;;;5074328;28;20037;-78
2021/11/10 00:08:06;;;;;;;14.10;7.13;;;2.50;99.90;;;;;;5074577;28;20032;-78
2021/11/10 00:10:33;;;;;;;12.93;7.25;;;2.30;99.90;;;;;;5055357;28;20025;-78
2021/11/10 00:15:44;;;;;;;12.95;6.90;;;2.30;99.90;;;;;;5055114;28;20032;-78
2021/11/10 00:18:10;;;;;;;12.30;7.50;;;2.20;99.90;;;;;;5057307;28;20040;-79
2021/11/10 00:20:36;;;;;;;10.77;6.78;;;2.00;99.90;;;;;;5075893;28;20523;-79
2021/11/10 00:23:02;;;;;;;17.42;7.57;;;2.00;99.90;;;;;;5081190;28;20522;-79
2021/11/10 00:25:27;;;;;;;14.32;7.90;;;2.10;99.90;;;;;;5082524;28;20475;-79
2021/11/10 00:27:53;;;;;;;13.93;8.30;;;2.00;99.90;;;;;;5061625;28;20104;-79
2021/11/10 00:30:18;;;;;;;15.90;7.65;;;2.00;99.90;;;;;;5079259;28;20036;-79
2021/11/10 00:32:44;;;;;;;14.02;7.35;;;1.80;99.90;;;;;;5078648;28;20044;-79
2021/11/10 00:35:10;;;;;;;14.35;7.88;;;1.90;99.90;;;;;;5077677;28;20115;-79
2021/11/10 00:37:35;;;;;;;13.85;8.30;;;2.00;99.90;;;;;;5079493;28;20036;-79
2021/11/10 00:40:01;;;;;;;14.10;9.48;;;2.00;99.90;;;;;;5053265;28;20065;-80
2021/11/10 00:42:27;;;;;;;17.30;8.20;;;2.10;99.90;;;;;;5054753;28;20029;-77
2021/11/10 00:44:52;;;;;;;18.58;9.77;;;2.20;99.90;;;;;;5054523;28;20132;-80
2021/11/10 00:47:18;;;;;;;17.77;8.52;;;2.30;99.90;;;;;;5056292;28;20029;-78
2021/11/10 00:49:43;;;;;;;18.27;8.65;;;2.50;99.90;;;;;;5036372;28;20481;-78
2021/11/10 00:52:09;;;;;;;16.33;8.63;;;2.30;99.90;;;;;;5075569;28;20033;-77
2021/11/10 00:54:35;;;;;;;13.68;8.32;;;2.10;99.90;;;;;;5055815;28;20108;-77
2021/11/10 00:57:00;;;;;;;16.73;7.97;;;2.40;99.90;;;;;;5074272;28;20024;-78
2021/11/10 00:59:26;;;;;;;13.52;7.82;;;2.60;99.90;;;;;;5066686;28;20393;-77
2021/11/10 01:01:52;;;;;;;14.95;8.23;;;2.40;99.90;;;;;;5061430;28;20388;-78
2021/11/10 01:04:18;;;;;;;14.90;7.93;;;2.40;99.90;;;;;;5074042;28;20025;-78
2021/11/10 01:06:43;;;;;;;21.30;8.52;;;2.30;99.90;;;;;;5073849;28;20036;-77
2021/11/10 01:09:16;;;;;;;16.42;8.70;;;2.10;99.90;;;;;;5045068;28;20535;-78
2021/11/10 01:11:42;;;;;;;15.43;7.40;;;2.10;99.90;;;;;;5034998;28;20519;-77
2021/11/10 01:14:07;;;;;;;11.70;7.55;;;2.00;99.90;;;;;;5036575;28;20037;-78
2021/11/10 01:16:33;;;;;;;11.20;6.68;;;2.00;99.90;;;;;;5052627;28;20044;-80
2021/11/10 01:18:58;;;;;;;17.35;7.00;;;2.10;99.90;;;;;;5038679;28;20459;-77
2021/11/10 01:21:24;;;;;;;10.48;6.65;;;2.10;99.90;;;;;;5050584;28;20397;-77
2021/11/10 01:23:50;;;;;;;12.82;7.28;;;2.00;99.90;;;;;;5053085;28;20029;-77
2021/11/10 01:26:15;;;;;;;12.50;7.18;;;2.00;99.90;;;;;;5053188;28;20110;-78
2021/11/10 01:28:41;;;;;;;21.58;7.03;;;1.90;99.90;;;;;;5061354;28;20091;-78
2021/11/10 01:31:06;;;;;;;13.35;6.88;;;1.80;99.90;;;;;;5054197;28;20029;-78
2021/11/10 01:33:32;;;;;;;12.52;6.68;;;2.40;99.90;;;;;;5054117;28;20025;-78
2021/11/10 01:35:58;;;;;;;14.20;6.35;;;1.50;99.90;;;;;;5067446;28;20477;-76
2021/11/10 01:38:23;;;;;;;10.98;6.28;;;1.60;99.90;;;;;;5056180;28;20037;-78
2021/11/10 01:40:49;;;;;;;9.02;6.00;;;1.30;99.90;;;;;;5056631;28;20039;-78
2021/11/10 01:43:16;;;;;;;10.77;6.20;;;1.10;99.90;;;;;;5057266;28;20091;-78
2021/11/10 01:45:42;;;;;;;14.15;6.45;;;0.90;99.90;;;;;;5056859;28;20025;-78
2021/11/10 01:48:08;;;;;;;15.50;7.57;;;0.90;99.90;;;;;;5057888;28;20091;-78
2021/11/10 01:50:34;;;;;;;12.02;7.50;;;0.70;99.90;;;;;;5057410;28;20086;-78
2021/11/10 01:52:59;;;;;;;9.80;7.00;;;0.60;99.90;;;;;;5024080;28;20036;-79
2021/11/10 01:55:27;;;;;;;14.48;8.85;;;0.60;99.90;;;;;;5041606;28;20485;-78
2021/11/10 01:57:53;;;;;;;14.63;8.63;;;0.60;99.90;;;;;;5060979;28;20139;-78
2021/11/10 02:00:23;;;;;;;16.00;8.40;;;0.70;99.90;;;;;;5061297;28;20048;-78
2021/11/10 02:02:49;;;;;;;15.85;7.82;;;0.70;99.90;;;;;;5078227;28;20023;-78
2021/11/10 02:05:16;;;;;;;13.88;7.20;;;0.70;99.90;;;;;;5070842;28;20025;-78
2021/11/10 02:07:43;;;;;;;13.57;7.30;;;0.60;99.90;;;;;;5060404;28;20036;-78
2021/11/10 02:10:11;;;;;;;13.10;8.68;;;0.60;99.90;;;;;;5056937;28;20083;-78
2021/11/10 02:12:37;;;;;;;15.90;8.65;;;0.40;99.90;;;;;;5055826;28;20025;-77
2021/11/10 02:15:06;;;;;;;13.95;9.23;;;0.40;99.90;;;;;;5055923;28;20501;-78
2021/11/10 02:17:32;;;;;;;19.55;8.77;;;0.40;99.90;;;;;;5056517;28;20041;-77
2021/11/10 02:19:57;;;;;;;12.32;8.77;;;0.40;99.90;;;;;;5070707;28;20119;-78
2021/11/10 02:22:23;;;;;;;19.90;9.07;;;0.40;99.90;;;;;;5075307;28;20060;-78
2021/11/10 02:24:49;;;;;;;14.90;9.73;;;0.30;99.90;;;;;;5075329;28;20051;-78
2021/11/10 02:27:21;;;;;;;13.75;8.00;;;0.30;99.90;;;;;;5076617;28;20039;-77
2021/11/10 02:29:50;;;;;;;13.90;9.43;;;0.40;99.90;;;;;;5039786;28;20082;-80
2021/11/10 02:32:16;;;;;;;15.98;9.05;;;0.40;99.90;;;;;;5057759;28;20029;-77
2021/11/10 02:34:44;;;;;;;16.98;8.13;;;0.30;99.90;;;;;;5062021;28;20029;-79
2021/11/10 02:37:12;;;;;;;15.05;8.77;;;0.30;99.90;;;;;;5082962;28;20031;-79
2021/11/10 02:39:38;;;;;;;17.13;8.45;;;0.40;99.90;;;;;;5067667;28;20025;-78
2021/11/10 02:42:05;;;;;;;12.43;7.93;;;0.40;99.90;;;;;;5057047;28;20051;-78
2021/11/10 02:44:31;;;;;;;18.50;9.05;;;0.40;99.90;;;;;;5040432;28;20059;-80
2021/11/10 02:46:57;;;;;;;15.75;9.68;;;0.50;99.90;;;;;;5055652;28;20029;-77
2021/11/10 02:49:23;;;;;;;15.77;8.52;;;0.50;99.90;;;;;;5054917;28;20115;-77
2021/11/10 02:52:09;;;;;;;13.02;7.80;;;0.50;99.90;;;;;;5060270;28;20032;-78
2021/11/10 02:54:40;;;;;;;17.42;7.50;;;0.50;99.90;;;;;;5074848;28;20036;-77
2021/11/10 02:57:07;;;;;;;12.52;8.05;;;0.30;99.90;;;;;;5075507;28;20024;-78
2021/11/10 02:59:33;;;;;;;14.43;8.40;;;0.20;99.90;;;;;;5076285;28;20512;-77
2021/11/10 03:02:00;;;;;;;16.67;8.65;;;0.00;99.90;;;;;;5074172;28;20040;-78
2021/11/10 03:04:31;;;;;;;21.15;8.45;;;0.00;99.90;;;;;;5056479;28;20021;-78
2021/11/10 03:06:57;;;;;;;17.02;8.52;;;-0.10;99.90;;;;;;5076532;28;20047;-78
2021/11/10 03:09:28;;;;;;;18.45;9.23;;;-0.20;99.90;;;;;;5067485;28;20040;-78
2021/11/10 03:11:59;;;;;;;18.42;8.85;;;0.00;99.90;;;;;;5056651;28;20037;-77
2021/11/10 03:14:26;;;;;;;13.77;8.32;;;0.10;99.90;;;;;;5056032;28;20025;-78
2021/11/10 03:16:52;;;;;;;16.35;8.90;;;0.00;99.90;;;;;;5056528;28;20036;-78
2021/11/10 03:19:18;;;;;;;14.52;8.27;;;-0.20;99.90;;;;;;5062931;28;20033;-78
2021/11/10 03:21:44;;;;;;;15.75;9.32;;;-0.20;99.90;;;;;;5064689;28;20171;-78
2021/11/10 03:24:10;;;;;;;17.13;10.13;;;-0.10;99.90;;;;;;5056344;28;20037;-78
2021/11/10 03:26:36;;;;;;;20.63;10.45;;;-0.10;99.90;;;;;;5055320;28;20452;-78
2021/11/10 03:29:03;;;;;;;17.58;9.48;;;-0.10;99.90;;;;;;5065369;28;20028;-78
2021/11/10 03:31:30;;;;;;;14.98;9.00;;;-0.20;99.90;;;;;;5076399;28;20405;-77
2021/11/10 03:33:56;;;;;;;18.73;9.85;;;0.20;99.90;;;;;;5063680;28;20028;-78
2021/11/10 03:36:22;;;;;;;18.92;10.65;;;-0.10;99.90;;;;;;5054221;28;20599;-78
2021/11/10 03:38:47;;;;;;;21.70;11.52;;;-0.20;99.90;;;;;;5063916;28;20061;-78
2021/11/10 03:41:13;;;;;;;21.17;11.60;;;0.00;99.90;;;;;;5052386;28;20032;-77
2021/11/10 03:43:39;;;;;;;17.45;10.55;;;-0.10;99.90;;;;;;5052421;28;20025;-78
2021/11/10 03:46:04;;;;;;;19.27;10.73;;;0.70;99.90;;;;;;5052129;28;20107;-78
2021/11/10 03:48:30;;;;;;;18.67;11.10;;;0.00;99.90;;;;;;5054892;28;20033;-77
2021/11/10 03:50:56;;;;;;;18.70;10.65;;;-0.10;99.90;;;;;;5071672;28;20029;-78
2021/11/10 03:53:22;;;;;;;22.48;12.10;;;-0.20;99.90;;;;;;5071642;28;20028;-79
2021/11/10 03:55:47;;;;;;;21.95;11.43;;;-0.10;99.90;;;;;;5071654;28;20154;-77
2021/11/10 03:58:13;;;;;;;21.05;11.68;;;-0.10;99.90;;;;;;5055491;28;20082;-77
2021/11/10 04:00:39;;;;;;;20.02;11.70;;;0.00;99.90;;;;;;5052176;28;20371;-77
2021/11/10 04:03:06;;;;;;;18.23;12.05;;;0.10;99.90;;;;;;5051848;28;20388;-78
2021/11/10 04:05:31;;;;;;;18.70;12.27;;;0.30;99.90;;;;;;5051679;28;20100;-78
2021/11/10 04:07:57;;;;;;;19.42;11.70;;;0.40;99.90;;;;;;5051943;28;20117;-78
2021/11/10 04:10:23;;;;;;;24.67;11.93;;;0.30;99.90;;;;;;5052553;28;20494;-78
2021/11/10 04:12:49;;;;;;;26.65;12.55;;;0.40;99.90;;;;;;5052430;28;20040;-77
2021/11/10 04:15:16;;;;;;;21.52;11.52;;;0.50;99.90;;;;;;5051784;28;20446;-78
2021/11/10 04:17:41;;;;;;;19.90;10.20;;;0.20;99.90;;;;;;5035012;28;20087;-78
2021/11/10 04:20:08;;;;;;;23.98;12.52;;;0.40;99.90;;;;;;5053564;28;20029;-78
2021/11/10 04:22:34;;;;;;;25.30;11.75;;;0.40;99.90;;;;;;5052929;28;20037;-78
2021/11/10 04:25:00;;;;;;;21.95;11.68;;;0.50;99.90;;;;;;5053536;28;20029;-78
2021/11/10 04:27:26;;;;;;;18.60;11.18;;;0.50;99.90;;;;;;5079232;28;20481;-79
2021/11/10 04:29:52;;;;;;;21.75;11.07;;;0.50;99.90;;;;;;5076361;28;20025;-77
2021/11/10 04:32:18;;;;;;;18.05;10.38;;;0.50;99.90;;;;;;5069573;28;20033;-79
2021/11/10 04:34:44;;;;;;;19.10;11.52;;;0.50;99.90;;;;;;5067845;28;20017;-77
2021/11/10 04:37:12;;;;;;;19.65;10.65;;;0.50;99.90;;;;;;5062346;28;20055;-78
2021/11/10 04:39:38;;;;;;;18.08;10.95;;;0.50;99.90;;;;;;5072035;28;20039;-76
2021/11/10 04:42:05;;;;;;;21.00;11.40;;;0.50;99.90;;;;;;5072700;28;20378;-77
2021/11/10 04:44:30;;;;;;;21.63;11.52;;;0.50;99.90;;;;;;5072450;28;20052;-77
2021/11/10 04:46:57;;;;;;;20.23;10.88;;;0.50;99.90;;;;;;5060090;28;20092;-77
2021/11/10 04:49:25;;;;;;;24.75;11.20;;;0.40;99.90;;;;;;5045412;28;20060;-77
2021/11/10 04:51:52;;;;;;;19.90;10.40;;;0.50;99.90;;;;;;5053394;28;20056;-77
2021/11/10 04:54:21;;;;;;;18.58;10.30;;;0.50;99.90;;;;;;5051146;28;20649;-78
2021/11/10 04:56:47;;;;;;;20.00;10.43;;;0.30;99.90;;;;;;5033727;28;20025;-78
2021/11/10 04:59:12;;;;;;;17.48;10.93;;;1.80;99.90;;;;;;5054440;28;20097;-78
2021/11/10 05:01:57;;;;;;;17.38;10.45;;;0.20;99.90;;;;;;5051595;28;20374;-77
2021/11/10 05:04:23;;;;;;;21.13;11.38;;;0.20;99.90;;;;;;5052868;28;20040;-78
2021/11/10 05:06:49;;;;;;;16.83;10.80;;;0.20;99.90;;;;;;5053584;28;20373;-77
2021/11/10 05:09:14;;;;;;;21.70;12.93;;;0.10;99.90;;;;;;5053084;28;20472;-78
2021/11/10 05:11:40;;;;;;;21.10;11.43;;;0.20;99.90;;;;;;5053293;28;20031;-79
2021/11/10 05:14:05;;;;;;;23.55;13.85;;;0.10;99.90;;;;;;5071021;28;20029;-77
2021/11/10 05:16:31;;;;;;;18.05;10.98;;;0.10;99.90;;;;;;5074206;28;20028;-78
2021/11/10 05:18:57;;;;;;;16.40;10.15;;;0.10;99.90;;;;;;5062858;28;20156;-78
2021/11/10 05:21:22;;;;;;;24.83;11.13;;;0.20;99.90;;;;;;5055311;28;20060;-77
2021/11/10 05:23:48;;;;;;;18.90;11.30;;;0.20;99.90;;;;;;5061461;28;20036;-77
2021/11/10 05:26:13;;;;;;;19.52;11.32;;;0.20;99.90;;;;;;5071359;28;20110;-77
2021/11/10 05:28:39;;;;;;;21.08;11.27;;;0.20;99.90;;;;;;5060647;28;20029;-77
2021/11/10 05:31:05;;;;;;;27.65;11.57;;;0.20;99.90;;;;;;5074954;28;20040;-77
2021/11/10 05:33:30;;;;;;;25.80;11.32;;;0.20;99.90;;;;;;5075059;28;20067;-77
2021/11/10 05:35:56;;;;;;;21.77;12.25;;;0.20;99.90;;;;;;5074240;28;20454;-77
2021/11/10 05:38:22;;;;;;;20.05;11.13;;;0.10;99.90;;;;;;5067804;28;20036;-77
2021/11/10 05:40:47;;;;;;;20.23;12.10;;;0.10;99.90;;;;;;5074929;28;20025;-77
2021/11/10 05:43:13;;;;;;;21.92;11.68;;;0.10;99.90;;;;;;5074304;28;20112;-77
2021/11/10 05:45:39;;;;;;;23.60;11.85;;;0.10;99.90;;;;;;5074224;28;20100;-77
2021/11/10 05:48:05;;;;;;;20.10;11.43;;;0.10;99.90;;;;;;5070065;28;20028;-77
2021/11/10 05:50:30;;;;;;;22.33;11.88;;;0.20;99.90;;;;;;5054808;28;20028;-77
2021/11/10 05:52:56;;;;;;;25.63;11.38;;;0.20;99.90;;;;;;5036962;28;20078;-77
2021/11/10 05:55:25;;;;;;;21.10;11.77;;;0.20;99.90;;;;;;5062061;28;20063;-77
2021/11/10 05:57:53;;;;;;;21.52;11.45;;;0.20;99.90;;;;;;5072151;28;20040;-77
2021/11/10 06:00:21;;;;;;;17.55;10.25;;;0.20;99.90;;;;;;5055205;28;20033;-77
2021/11/10 06:02:48;;;;;;;18.20;11.05;;;-0.10;99.90;;;;;;5054953;28;20025;-78
2021/11/10 06:05:16;;;;;;;17.80;12.20;;;0.10;99.90;;;;;;5061719;28;20081;-77
2021/11/10 06:07:41;;;;;;;24.75;12.60;;;0.00;99.90;;;;;;5072078;28;20071;-79
2021/11/10 06:10:07;;;;;;;22.35;12.60;;;0.00;99.90;;;;;;5077190;28;20037;-78
2021/11/10 06:12:33;;;;;;;24.40;14.18;;;0.00;99.90;;;;;;5076499;28;20025;-76
2021/11/10 06:14:59;;;;;;;33.65;17.92;;;0.00;99.90;;;;;;5074542;28;20028;-76
2021/11/10 06:17:24;;;;;;;30.48;16.50;;;0.00;99.90;;;;;;5082090;28;20020;-76
2021/11/10 06:19:50;;;;;;;25.13;14.90;;;-0.10;99.90;;;;;;5065892;28;20036;-76
2021/11/10 06:22:16;;;;;;;20.25;12.57;;;-0.10;99.90;;;;;;5066578;28;20398;-77
2021/11/10 06:24:41;;;;;;;21.83;12.57;;;0.80;99.90;;;;;;5076774;28;20048;-76
2021/11/10 06:27:07;;;;;;;20.45;12.52;;;0.00;99.90;;;;;;5060229;28;20056;-77
2021/11/10 06:29:33;;;;;;;24.05;12.95;;;-0.10;99.90;;;;;;5061943;28;20035;-77
2021/11/10 06:31:58;;;;;;;29.40;13.45;;;-0.10;99.90;;;;;;5058177;28;20036;-76
2021/11/10 06:34:24;;;;;;;22.55;12.90;;;1.00;99.90;;;;;;5056262;28;20477;-76
2021/11/10 06:36:50;;;;;;;21.67;12.95;;;0.10;99.90;;;;;;5076329;28;20043;-77
2021/11/10 06:39:16;;;;;;;18.15;11.45;;;0.20;99.90;;;;;;5055915;28;20037;-77
2021/11/10 06:41:42;;;;;;;23.70;12.65;;;0.10;99.90;;;;;;5067411;28;20777;-77
2021/11/10 06:44:08;;;;;;;23.52;13.63;;;0.20;99.90;;;;;;5056026;28;20968;-78
2021/11/10 06:46:34;;;;;;;24.80;13.77;;;0.10;99.90;;;;;;5056426;28;20108;-78
2021/11/10 06:49:00;;;;;;;24.55;13.88;;;;;;;;;;5066348;28;20037;-78
2021/11/10 06:51:25;;;;;;;23.48;13.18;;;0.20;99.90;;;;;;5065209;28;20043;-78
2021/11/10 06:53:51;;;;;;;20.80;13.25;;;0.10;99.90;;;;;;5059210;28;20390;-79
2021/11/10 06:56:17;;;;;;;21.95;12.30;;;0.00;99.90;;;;;;5065937;28;20049;-78
2021/11/10 06:58:43;;;;;;;23.70;12.95;;;-0.10;99.90;;;;;;5043561;28;20029;-79
2021/11/10 07:01:09;;;;;;;28.13;15.77;;;0.10;99.90;;;;;;5071140;28;20024;-79
2021/11/10 07:03:35;;;;;;;32.83;14.60;;;0.10;99.90;;;;;;5074192;28;20107;-79
2021/11/10 07:06:01;;;;;;;28.80;14.32;;;0.20;99.90;;;;;;5073871;28;20036;-79
2021/11/10 07:08:27;;;;;;;25.05;14.10;;;0.30;99.90;;;;;;5076675;28;20046;-78
2021/11/10 07:10:52;;;;;;;27.25;14.25;;;1.60;99.90;;;;;;5058339;28;20033;-78
2021/11/10 07:13:18;;;;;;;21.60;13.55;;;0.40;99.90;;;;;;5065898;28;20067;-79
2021/11/10 07:15:44;;;;;;;24.67;12.10;;;0.60;99.90;;;;;;5064362;28;20033;-79
2021/11/10 07:18:09;;;;;;;25.88;13.90;;;0.70;99.90;;;;;;5063643;28;20388;-77
2021/11/10 07:20:35;;;;;;;23.80;13.60;;;0.80;99.90;;;;;;5069947;28;20512;-79
2021/11/10 07:23:01;;;;;;;22.80;13.65;;;0.60;99.90;;;;;;5073734;28;20045;-77
2021/11/10 07:25:28;;;;;;;32.50;18.48;;;2.20;99.90;;;;;;5075278;28;20036;-79
2021/11/10 07:27:54;;;;;;;24.08;14.00;;;0.80;99.90;;;;;;5047415;28;20024;-79
2021/11/10 07:30:20;;;;;;;22.52;13.35;;;0.90;99.90;;;;;;5052999;28;20108;-77
2021/11/10 07:32:45;;;;;;;22.05;12.32;;;1.00;99.90;;;;;;5063046;28;20036;-77
2021/11/10 07:35:12;;;;;;;22.73;13.40;;;1.00;99.90;;;;;;5082211;28;20028;-76
2021/11/10 07:37:41;;;;;;;21.85;12.05;;;1.30;99.90;;;;;;5070223;28;20103;-76
2021/11/10 07:40:07;;;;;;;24.73;13.60;;;1.10;99.90;;;;;;5071902;28;20056;-76
2021/11/10 07:42:33;;;;;;;21.15;13.05;;;1.40;99.90;;;;;;5068612;28;20032;-76
2021/11/10 07:45:08;;;;;;;19.77;11.88;;;1.50;99.90;;;;;;5068092;28;20029;-76
2021/11/10 07:47:41;;;;;;;22.67;13.35;;;1.60;99.90;;;;;;5061609;28;20109;-76
2021/11/10 07:50:22;;;;;;;22.80;12.70;;;1.80;99.90;;;;;;5053420;28;20033;-76
2021/11/10 07:52:48;;;;;;;22.80;13.30;;;1.90;99.90;;;;;;5039457;28;20464;-76
2021/11/10 07:55:14;;;;;;;19.02;12.93;;;2.30;99.90;;;;;;5052561;28;20028;-76
2021/11/10 07:57:40;;;;;;;22.58;12.15;;;2.00;99.90;;;;;;5066114;28;20021;-77
2021/11/10 08:00:11;;;;;;;26.38;14.68;;;2.30;99.90;;;;;;5048037;28;20079;-77
2021/11/10 08:02:36;;;;;;;32.25;15.65;;;2.30;99.90;;;;;;5068973;28;20082;-76
2021/11/10 08:05:03;;;;;;;34.13;17.75;;;2.90;99.90;;;;;;5057494;28;20432;-78
2021/11/10 08:07:29;;;;;;;24.42;13.88;;;2.40;99.90;;;;;;5075714;28;20024;-78
2021/11/10 08:09:54;;;;;;;23.33;12.38;;;3.60;99.90;;;;;;5037576;28;20043;-78
2021/11/10 08:12:20;;;;;;;22.27;11.52;;;3.10;99.90;;;;;;5061852;28;20037;-78
2021/11/10 08:14:46;;;;;;;12.98;8.88;;;3.20;99.90;;;;;;5071366;28;20077;-78
2021/11/10 08:17:11;;;;;;;14.05;9.38;;;3.40;99.90;;;;;;5069914;28;20158;-78
2021/11/10 08:19:37;;;;;;;12.63;8.60;;;3.60;99.90;;;;;;5062885;28;20174;-78
2021/11/10 08:22:03;;;;;;;13.07;8.35;;;3.70;99.90;;;;;;5055417;28;20040;-78
2021/11/10 08:24:29;;;;;;;13.85;8.50;;;4.10;99.90;;;;;;5070348;28;20036;-79
2021/11/10 08:26:55;;;;;;;12.70;8.10;;;4.30;99.90;;;;;;5077216;28;20025;-79
2021/11/10 08:29:22;;;;;;;14.90;8.60;;;5.00;99.90;;;;;;5078454;28;20036;-79
2021/11/10 08:31:49;;;;;;;13.48;8.13;;;5.60;99.90;;;;;;5074628;28;20406;-79
2021/11/10 08:34:14;;;;;;;17.45;8.30;;;6.10;99.90;;;;;;5074126;28;20022;-79
2021/11/10 08:36:40;;;;;;;12.90;7.38;;;6.60;99.90;;;;;;5072906;28;20025;-76
2021/11/10 08:39:06;;;;;;;14.52;8.18;;;6.70;99.90;;;;;;5072160;28;20033;-76
2021/11/10 08:41:32;;;;;;;11.57;7.05;;;;;;;;;;5067734;28;20033;-79
2021/11/10 08:43:58;;;;;;;12.93;6.70;;;;;;;;;;5064404;28;20083;-77
2021/11/10 08:46:24;;;;;;;12.20;6.95;;;8.20;99.90;;;;;;5058088;28;20036;-77
2021/11/10 08:48:53;;;;;;;11.02;7.10;;;7.70;99.90;;;;;;5068262;28;20182;-77
2021/11/10 08:51:20;;;;;;;10.85;6.30;;;7.80;99.90;;;;;;5055544;28;20647;-77
2021/11/10 08:53:46;;;;;;;11.55;6.30;;;7.80;99.90;;;;;;5055175;28;20564;-77
2021/11/10 08:56:12;;;;;;;15.88;7.35;;;7.70;99.90;;;;;;5062763;28;20120;-77
2021/11/10 08:58:38;;;;;;;14.20;7.40;;;7.40;99.90;;;;;;5063819;28;20366;-77
2021/11/10 09:01:04;;;;;;;10.40;5.75;;;7.50;99.90;;;;;;5070968;28;20074;-77
2021/11/10 09:03:30;;;;;;;13.15;5.72;;;7.40;99.90;;;;;;5065798;28;20040;-77
2021/11/10 09:05:56;;;;;;;13.05;6.32;;;7.80;99.90;;;;;;5066768;28;20021;-77
2021/11/10 09:08:25;;;;;;;14.38;7.20;;;6.90;99.90;;;;;;5058314;28;20025;-77
2021/11/10 09:10:51;;;;;;;14.60;7.63;;;6.70;99.90;;;;;;5071744;28;20055;-77
2021/11/10 09:13:16;;;;;;;10.98;6.65;;;6.70;99.90;;;;;;5064973;28;20139;-77
2021/11/10 09:15:43;;;;;;;12.95;7.63;;;6.30;99.90;;;;;;5066970;28;20036;-76
2021/11/10 09:18:09;;;;;;;14.88;7.88;;;6.50;99.90;;;;;;5063007;28;20024;-77
2021/11/10 09:20:37;;;;;;;15.55;7.75;;;6.40;99.90;;;;;;5071904;28;20043;-78
2021/11/10 09:23:05;;;;;;;14.43;8.38;;;6.20;99.90;;;;;;5064184;28;20024;-77
2021/11/10 09:25:32;;;;;;;15.25;9.40;;;6.10;99.90;;;;;;5057087;28;20104;-78
2021/11/10 09:28:00;;;;;;;23.25;9.10;;;6.20;99.90;;;;;;5065406;28;20032;-78
2021/11/10 09:30:28;;;;;;;15.60;9.20;;;6.40;99.90;;;;;;5072160;28;20033;-78
2021/11/10 09:32:55;;;;;;;21.23;9.98;;;6.40;99.90;;;;;;5077380;28;20067;-78
2021/11/10 09:35:22;;;;;;;17.35;10.20;;;6.70;99.90;;;;;;5076707;28;20056;-80
2021/11/10 09:37:49;;;;;;;12.07;7.72;;;6.90;99.90;;;;;;5058674;28;20029;-80
2021/11/10 09:40:18;;;;;;;13.02;7.75;;;7.60;99.90;;;;;;5040697;28;20033;-79
2021/11/10 09:42:44;;;;;;;15.85;7.53;;;7.40;99.90;;;;;;5059042;28;20029;-78
2021/11/10 09:45:15;;;;;;;11.45;6.65;;;8.10;99.90;;;;;;5057786;28;20474;-79
2021/11/10 09:47:41;;;;;;;13.52;6.90;;;7.30;99.90;;;;;;5059011;28;20037;-79
2021/11/10 09:50:09;;;;;;;13.60;7.47;;;7.40;99.90;;;;;;5066547;28;20029;-80
2021/11/10 09:52:35;;;;;;;11.63;5.68;;;8.80;99.90;;;;;;5071919;28;20025;-79
2021/11/10 09:55:02;;;;;;;13.32;6.88;;;8.00;99.90;;;;;;5075524;28;20025;-78
2021/11/10 09:57:28;;;;;;;10.02;6.22;;;7.70;99.90;;;;;;5084392;28;20021;-80
2021/11/10 09:59:54;;;;;;;10.55;6.60;;;7.90;99.90;;;;;;5063605;28;20110;-80
2021/11/10 10:02:20;;;;;;;14.45;6.07;;;8.00;99.90;;;;;;5071092;28;20480;-77
2021/11/10 10:04:46;;;;;;;10.25;6.15;;;9.00;99.90;;;;;;5067267;28;20059;-78
2021/11/10 10:07:13;;;;;;;14.77;6.32;;;7.90;99.90;;;;;;5077868;28;20066;-78
2021/11/10 10:09:39;;;;;;;11.75;6.47;;;8.20;99.90;;;;;;5068446;28;20025;-79
2021/11/10 10:12:06;;;;;;;9.48;5.80;;;9.10;99.90;;;;;;5071523;28;20025;-80
2021/11/10 10:14:33;;;;;;;9.68;6.57;;;8.30;99.90;;;;;;5057320;28;20032;-81
2021/11/10 10:17:07;;;;;;;13.00;6.50;;;8.20;99.90;;;;;;5056172;28;20470;-77
2021/11/10 10:19:43;;;;;;;10.35;6.15;;;8.50;99.90;;;;;;5051740;28;20426;-77
2021/11/10 10:22:19;;;;;;;8.20;5.53;;;;;;;;;;5075922;28;20037;-77
2021/11/10 10:24:47;;;;;;;10.98;6.13;;;;;;;;;;5075549;28;20021;-78
2021/11/10 10:27:29;;;;;;;8.73;6.13;;;10.20;99.90;;;;;;5076353;28;20025;-78
2021/11/10 10:30:26;;;;;;;10.73;5.85;;;9.70;99.90;;;;;;5058788;28;20029;-78
2021/11/10 10:33:00;;;;;;;8.18;4.93;;;10.00;99.90;;;;;;5074678;28;20035;-77
2021/11/10 10:35:38;;;;;;;7.80;4.20;;;10.90;99.90;;;;;;5075234;28;20037;-78
2021/11/10 10:38:06;;;;;;;12.07;5.18;;;;;;;;;;5075969;28;20070;-78
2021/11/10 10:40:32;;;;;;;7.78;4.38;;;;;;;;;;5069979;28;20438;-77
2021/11/10 10:42:58;;;;;;;8.98;4.53;;;;;;;;;;5068140;28;20037;-77
2021/11/10 10:45:38;;;;;;;8.23;4.47;;;;;;;;;;5057412;28;20036;-77
2021/11/10 10:48:04;;;;;;;8.02;5.13;;;;;;;;;;5077057;28;20063;-78
2021/11/10 10:50:39;;;;;;;14.52;5.80;;;;;;;;;;5079775;28;20025;-78
2021/11/10 10:53:05;;;;;;;9.45;5.70;;;;;;;;;;5079630;28;20024;-77
2021/11/10 10:55:36;;;;;;;9.63;5.40;;;;;;;;;;5076882;28;20031;-77
2021/11/10 10:58:03;;;;;;;10.65;5.82;;;;;;;;;;5075323;28;20017;-78
2021/11/10 11:00:30;;;;;;;10.82;5.40;;;;;;;;;;5058029;28;20061;-78
2021/11/10 11:03:19;;;;;;;11.15;4.90;;;;;;;;;;5067233;28;20033;-77
2021/11/10 11:05:45;;;;;;;7.80;4.70;;;;;;;;;;5068982;28;20024;-77
2021/11/10 11:08:29;;;;;;;9.90;5.15;;;;;;;;;;5069665;28;20039;-77
2021/11/10 11:10:55;;;;;;;8.23;5.15;;;;;;;;;;5061247;28;20556;-79
2021/11/10 11:13:27;;;;;;;9.25;5.30;;;;;;;;;;5060784;28;20036;-78
2021/11/10 11:16:09;;;;;;;9.15;5.63;;;;;;;;;;5080700;28;20023;-78
2021/11/10 11:18:36;;;;;;;11.23;5.88;;;;;;;;;;5076749;28;20047;-78
2021/11/10 11:21:21;;;;;;;12.00;6.15;;;;;;;;;;5059087;28;20031;-78
2021/11/10 11:23:47;;;;;;;12.45;6.40;;;;;;;;;;5057415;28;20163;-77
2021/11/10 11:26:33;;;;;;;10.52;5.93;;;;;;;;;;5056959;28;20045;-78
2021/11/10 11:29:00;;;;;;;12.48;7.15;;;;;;;;;;5068808;28;20063;-77
2021/11/10 11:31:34;;;;;;;9.93;6.55;;;;;;;;;;5056140;28;20426;-77
2021/11/10 11:34:01;;;;;;;12.88;7.03;;;;;;;;;;5060012;28;20051;-79
2021/11/10 11:36:46;;;;;;;14.80;7.25;;;;;;;;;;5075233;28;20028;-79
2021/11/10 11:39:11;;;;;;;12.27;6.68;;;10.40;99.90;;;;;;5078003;28;20099;-77
2021/11/10 11:41:39;;;;;;;9.38;6.68;;;17.40;87.40;;;;;;5087066;28;20048;-77
2021/11/10 11:44:05;;;;;;;11.93;6.80;;;16.90;90.00;;;;;;5081007;28;20028;-78
2021/11/10 11:46:38;;;;;;;10.05;6.38;;;17.00;87.80;;;;;;5073741;28;20033;-77
2021/11/10 11:49:04;;;;;;;10.77;7.05;;;16.00;87.80;;;;;;5072725;28;20039;-78
2021/11/10 11:51:32;;;;;;;12.43;7.00;;;15.70;91.20;;;;;;5059146;28;20049;-79
2021/11/10 11:54:00;;;;;;;11.63;6.60;;;15.60;92.60;;;;;;5046212;28;20025;-78
2021/11/10 11:56:27;;;;;;;11.10;6.78;;;16.50;90.70;;;;;;5073036;28;20037;-79
2021/11/10 11:58:56;;;;;;;9.52;5.90;;;16.50;90.30;;;;;;5081568;28;20090;-78
2021/11/10 12:01:26;;;;;;;10.13;6.43;;;16.50;89.20;;;;;;5070279;28;20064;-79
2021/11/10 12:04:05;;;;;;;12.63;6.05;;;16.90;88.80;;;;;;5069234;28;20036;-79
2021/11/10 12:06:32;;;;;;;17.05;6.93;;;17.20;83.90;;;;;;5080216;28;20040;-78
2021/11/10 12:09:02;;;;;;;10.23;6.90;;;16.40;87.00;;;;;;5061681;28;20035;-79
2021/11/10 12:11:40;;;;;;;20.38;8.95;;;16.10;88.60;;;;;;5060426;28;20028;-79
2021/11/10 12:14:08;;;;;;;11.93;7.97;;;;;;;;;;5079945;28;20086;-78
2021/11/10 12:16:46;;;;;;;10.75;6.60;;;;;;;;;;5078638;28;20512;-78
2021/11/10 12:19:12;;;;;;;16.70;8.02;;;;;;;;;;5077723;28;20029;-78
2021/11/10 12:21:41;;;;;;;14.30;8.02;;;;;;;;;;5075140;28;20033;-77
2021/11/10 12:24:23;;;;;;;11.73;7.50;;;;;;;;;;5064512;28;20032;-78
2021/11/10 12:27:02;;;;;;;12.75;7.18;;;;;;;;;;5069414;28;20052;-78
2021/11/10 12:29:41;;;;;;;11.23;7.13;;;;;;;;;;5057720;28;20060;-79
2021/11/10 12:32:08;;;;;;;12.65;7.50;;;;;;;;;;5059228;28;20025;-78
2021/11/10 12:34:35;;;;;;;15.93;7.55;;;;;;;;;;5055612;28;20286;-79
2021/11/10 12:37:03;;;;;;;14.75;7.53;;;;;;;;;;5070294;28;20029;-79
2021/11/10 12:39:32;;;;;;;11.93;7.15;;;;;;;;;;5062320;28;20021;-78
2021/11/10 12:42:09;;;;;;;13.73;7.13;;;;;;;;;;5063157;28;20033;-78
2021/11/10 12:44:44;;;;;;;11.55;7.03;;;;;;;;;;5059480;28;20091;-78
2021/11/10 12:47:11;;;;;;;14.90;8.10;;;;;;;;;;5054706;28;20109;-78
2021/11/10 12:49:37;;;;;;;13.18;7.80;;;;;;;;;;5055445;28;20442;-78
2021/11/10 12:52:10;;;;;;;14.27;8.57;;;;;;;;;;5059804;28;20051;-79
2021/11/10 12:54:36;;;;;;;13.20;7.60;;;;;;;;;;5074069;28;20172;-78
2021/11/10 12:57:04;;;;;;;17.80;8.60;;;;;;;;;;5075433;28;20040;-79
2021/11/10 12:59:34;;;;;;;17.13;9.27;;;;;;;;;;5051428;28;20031;-78
2021/11/10 13:02:01;;;;;;;14.38;8.25;;;;;;;;;;5071869;28;20093;-79